Flight Track Log - Related Links

Times and Time Zones

All times are in EDT time to prevent confusion due to time zone crossing. See the EJA922 flight status page for this flight to view local times or setup timezone preferences in your user account.


Time Position Orientation Groundspeed Altitude Reporting Facility
EDT Latitude Longitude Course Direction KTS MPH feet Rate Location/Type
Thu 02:33:08 PM 32.1036 -110.9247 119° Southeast 192 221 3,300  Level Albuquerque Center
Thu 02:34:24 PM 32.0697 -110.8536 119° Southeast 244 281 6,700 2,913 Climbing Albuquerque Center
Thu 02:34:51 PM 32.0608 -110.8056 102° East 269 310 8,300 3,246 Climbing Albuquerque Center
Thu 02:35:25 PM 32.0581 -110.7619 94° East 281 323 10,000 2,438 Climbing Albuquerque Center
Thu 02:36:27 PM 32.0611 -110.6519 88° East 343 395 12,200 2,419 Climbing Albuquerque Center
Thu 02:37:29 PM 32.0817 -110.5225 79° East 380 437 15,000 2,371 Climbing Albuquerque Center
Thu 02:38:31 PM 32.1014 -110.3914 80° East 401 461 17,100 1,742 Climbing Albuquerque Center
Thu 02:39:33 PM 32.1614 -110.2756 59° Northeast 418 481 18,600 1,694 Climbing Albuquerque Center
Thu 02:40:35 PM 32.2561 -110.1461 49° Northeast 432 497 20,600 1,645 Climbing Albuquerque Center
Thu 02:41:37 PM 32.3361 -110.0353 49° Northeast 439 505 22,000 1,355 Climbing Albuquerque Center
Thu 02:42:39 PM 32.4189 -109.9206 49° Northeast 455 524 23,400 1,452 Climbing Albuquerque Center
Thu 02:43:41 PM 32.5147 -109.8242 40° Northeast 456 525 25,000 1,597 Climbing Albuquerque Center
Thu 02:44:43 PM 32.6219 -109.7392 34° Northeast 460 529 26,700 1,355 Climbing Albuquerque Center
Thu 02:45:45 PM 32.7297 -109.6472 36° Northeast 466 536 27,800 1,452 Climbing Albuquerque Center
Thu 02:46:47 PM 32.8194 -109.5247 49° Northeast 488 562 29,700 1,597 Climbing Albuquerque Center
Thu 02:47:49 PM 32.9225 -109.3714 51° Northeast 489 563 31,100 1,210 Climbing Albuquerque Center
Thu 02:48:51 PM 33.0119 -109.2392 51° Northeast 501 577 32,200 1,355 Climbing Albuquerque Center
Thu 02:49:53 PM 33.1044 -109.1056 50° Northeast 507 583 33,900 1,887 Climbing Albuquerque Center
Thu 02:50:55 PM 33.1925 -108.9706 52° Northeast 507 583 36,100 1,984 Climbing Albuquerque Center
Thu 02:51:57 PM 33.2825 -108.8417 50° Northeast 505 581 38,000 1,694 Climbing Albuquerque Center
Thu 02:52:59 PM 33.3678 -108.7144 51° Northeast 498 573 39,600 1,355 Climbing Albuquerque Center
Thu 02:54:01 PM 33.4511 -108.5883 52° Northeast 490 564 40,800 677 Climbing Albuquerque Center
Thu 02:55:03 PM 33.5358 -108.4611 51° Northeast 487 560 41,000 98 Climbing Albuquerque Center
Thu 02:56:04 PM 33.6242 -108.3300 51° Northeast 495 570 41,000  Level Albuquerque Center
Thu 02:57:06 PM 33.7314 -108.1678 51° Northeast 508 585 41,000  Level Albuquerque Center
Thu 02:58:08 PM 33.8194 -108.0342 52° Northeast 510 587 41,000  Level Albuquerque Center
Thu 02:59:10 PM 33.9100 -107.8981 51° Northeast 516 594 41,000  Level Albuquerque Center
Thu 03:00:12 PM 34.0114 -107.7431 52° Northeast 525 604 41,000  Level Albuquerque Center
Thu 03:01:14 PM 34.1003 -107.6064 52° Northeast 525 604 41,000  Level Albuquerque Center
Thu 03:02:16 PM 34.1908 -107.4689 51° Northeast 525 604 41,000  Level Albuquerque Center
Thu 03:03:18 PM 34.2811 -107.3297 52° Northeast 525 604 41,000  Level Albuquerque Center
Thu 03:04:20 PM 34.3858 -107.1653 52° Northeast 528 608 41,000  Level Albuquerque Center
Thu 03:05:23 PM 34.4783 -107.0272 51° Northeast 532 612 41,000  Level Albuquerque Center
Thu 03:06:25 PM 34.5728 -106.8764 53° Northeast 527 606 41,000  Level Albuquerque Center
Thu 03:07:27 PM 34.6594 -106.7425 52° Northeast 527 606 41,000  Level Albuquerque Center
Thu 03:08:29 PM 34.7497 -106.5994 52° Northeast 528 608 41,000  Level Albuquerque Center
Thu 03:09:31 PM 34.8394 -106.4575 52° Northeast 529 609 41,000  Level Albuquerque Center
Thu 03:10:33 PM 34.9286 -106.3147 53° Northeast 529 609 41,000  Level Albuquerque Center
Thu 03:11:35 PM 35.0372 -106.1419 52° Northeast 534 615 41,000  Level Albuquerque Center
Thu 03:12:37 PM 35.1261 -105.9978 53° Northeast 534 615 41,000  Level Albuquerque Center
Thu 03:13:39 PM 35.2161 -105.8547 52° Northeast 534 615 41,000  Level Albuquerque Center
Thu 03:14:41 PM 35.3044 -105.7114 53° Northeast 534 615 41,000  Level Albuquerque Center
Thu 03:15:43 PM 35.4039 -105.5500 53° Northeast 534 615 41,000  Level Albuquerque Center
Thu 03:16:46 PM 35.4936 -105.4033 53° Northeast 534 615 41,000  Level Albuquerque Center
Thu 03:17:48 PM 35.5844 -105.2556 53° Northeast 534 615 41,000  Level Albuquerque Center
Thu 03:18:50 PM 35.6731 -105.1078 54° Northeast 534 615 41,000  Level Albuquerque Center
Thu 03:19:52 PM 35.7561 -104.9544 56° Northeast 534 615 41,000  Level Albuquerque Center
Thu 03:20:54 PM 35.8542 -104.7750 56° Northeast 533 613 41,000  Level Albuquerque Center
Thu 03:21:56 PM 35.9364 -104.6225 56° Northeast 530 610 41,000  Level Albuquerque Center
Thu 03:22:58 PM 36.0189 -104.4686 56° Northeast 529 609 41,000  Level Albuquerque Center
Thu 03:24:00 PM 36.1022 -104.3119 57° Northeast 531 611 41,000  Level Albuquerque Center
Thu 03:25:02 PM 36.1861 -104.1556 56° Northeast 536 617 41,000  Level Albuquerque Center
Thu 03:26:04 PM 36.2694 -103.9975 57° Northeast 537 618 41,000  Level Albuquerque Center
Thu 03:27:06 PM 36.3511 -103.8417 57° Northeast 537 618 41,000  Level Albuquerque Center
Thu 03:28:08 PM 36.4331 -103.6856 57° Northeast 537 618 41,000  Level Albuquerque Center
Thu 03:29:10 PM 36.5275 -103.5058 57° Northeast 530 610 41,000  Level Albuquerque Center
Thu 03:30:12 PM 36.6075 -103.3506 57° Northeast 529 609 41,000  Level Albuquerque Center
Thu 03:31:14 PM 36.6886 -103.1958 57° Northeast 529 609 41,000  Level Albuquerque Center
Thu 03:32:17 PM 36.7694 -103.0378 57° Northeast 530 610 41,000  Level Albuquerque Center
Thu 03:33:19 PM 36.8503 -102.8819 57° Northeast 530 610 41,000  Level Albuquerque Center
Thu 03:34:21 PM 36.9347 -102.7144 58° Northeast 538 619 41,000  Level Albuquerque Center
Thu 03:35:23 PM 37.0242 -102.5372 58° Northeast 538 619 41,000  Level Albuquerque Center
Thu 03:36:25 PM 37.1025 -102.3844 57° Northeast 540 621 41,000  Level Albuquerque Center
Thu 03:37:12 PM 37.1675 -102.2556 58° Northeast 541 623 41,000  Level Kansas City Center
Thu 03:38:14 PM 37.2447 -102.1011 58° Northeast 542 624 41,000  Level Kansas City Center
Thu 03:39:16 PM 37.3344 -101.9211 58° Northeast 543 625 41,000  Level Kansas City Center
Thu 03:40:17 PM 37.4106 -101.7658 58° Northeast 543 625 41,000  Level Kansas City Center
Thu 03:41:19 PM 37.4986 -101.5892 58° Northeast 539 620 41,000  Level Kansas City Center
Thu 03:42:21 PM 37.5719 -101.4406 58° Northeast 525 604 41,000  Level Kansas City Center
Thu 03:43:23 PM 37.6567 -101.2664 58° Northeast 524 603 41,000  Level Kansas City Center
Thu 03:44:24 PM 37.7281 -101.1183 59° Northeast 522 601 41,000  Level Kansas City Center
Thu 03:45:26 PM 37.8050 -100.9608 58° Northeast 524 603 41,000  Level Kansas City Center
Thu 03:46:28 PM 37.8928 -100.7769 59° Northeast 535 616 41,000  Level Kansas City Center
Thu 03:47:30 PM 37.9569 -100.6122 64° Northeast 538 619 41,000  Level Kansas City Center
Thu 03:48:31 PM 38.0128 -100.4450 67° East 538 619 41,000  Level Kansas City Center
Thu 03:49:33 PM 38.0781 -100.2469 67° East 539 620 41,000  Level Kansas City Center
Thu 03:50:35 PM 38.1356 -100.0767 67° East 544 626 41,000  Level Kansas City Center
Thu 03:51:37 PM 38.2008 -99.8781 67° East 544 626 41,000  Level Kansas City Center
Thu 03:52:38 PM 38.2569 -99.7083 67° East 544 626 41,000  Level Kansas City Center
Thu 03:53:40 PM 38.3225 -99.5097 67° East 544 626 41,000  Level Kansas City Center
Thu 03:54:42 PM 38.3764 -99.3472 67° East 544 626 41,000  Level Kansas City Center
Thu 03:55:44 PM 38.4339 -99.1706 67° East 544 626 41,000 -484 Level Kansas City Center
Thu 03:56:46 PM 38.4925 -98.9908 67° East 544 626 40,000 -1,597 Descending Kansas City Center
Thu 03:57:48 PM 38.5511 -98.8103 67° East 547 629 37,700 -2,903 Descending Kansas City Center
Thu 03:58:50 PM 38.6150 -98.6125 67° East 502 578 34,000 -3,000 Descending Kansas City Center
Thu 03:59:52 PM 38.6647 -98.4533 68° East 485 558 31,500 -2,468 Descending Kansas City Center
Thu 04:00:54 PM 38.7011 -98.2889 74° East 479 551 28,900 -2,585 Descending Kansas City Center
Thu 04:01:55 PM 38.7372 -98.1208 75° East 486 559 26,200 -2,585 Descending Kansas City Center
Thu 04:02:57 PM 38.7728 -97.9514 75° East 490 564 23,600 -2,565 Descending Kansas City Center
Thu 04:03:59 PM 38.8089 -97.7783 75° East 481 554 20,900 -2,613 Descending Kansas City Center
Thu 04:05:01 PM 38.8458 -97.6097 74° East 450 518 18,200 -2,545 Descending Kansas City Center
Thu 04:05:38 PM 38.8622 -97.5272 76° East 417 480 16,700 -1,935 Descending Kansas City Center
Thu 04:06:03 PM 38.8694 -97.4914 75° East 422 486 16,200 -2,060 Descending Kansas City Center
Thu 04:06:45 PM 38.8944 -97.3731 75° East 392 451 14,400 -2,419 Descending Kansas City Center
Thu 04:07:05 PM 38.9019 -97.3314 77° East 394 453 13,700 -2,100 Descending Kansas City Center
Thu 04:07:45 PM 38.9197 -97.2411 76° East 358 412 12,300 -1,645 Descending Kansas City Center
Thu 04:08:07 PM 38.9278 -97.2039 74° East 356 410 12,000 -2,066 Descending Kansas City Center
Thu 04:08:46 PM 38.9406 -97.1311 77° East 325 374 10,200 -2,613 Descending Kansas City Center
Thu 04:09:09 PM 38.9447 -97.0864 83° East 325 374 9,300 -2,361 Descending Kansas City Center
Thu 04:09:47 PM 38.9547 -97.0192 79° East 292 336 7,800 -2,323 Descending Kansas City Center
Thu 04:10:11 PM 38.9586 -96.9828 82° East 284 327 6,900 -2,000 Descending Kansas City Center
Thu 04:10:47 PM 38.9667 -96.9317 79° East 256 295 5,800 -1,967 Descending Kansas City Center
Thu 04:11:12 PM 38.9714 -96.8900 82° East 254 292 4,900 -1,672 Descending Kansas City Center
Thu 04:11:48 PM 38.9808 -96.8494 73° East 211 243 4,100 -871 Descending Kansas City Center
Thu 04:12:14 PM 38.9911 -96.8286 58° Northeast 192 221 4,000 -100 Descending Kansas City Center
Thu 04:12:48 PM 39.0131 -96.8075 37° Northeast 157 181 4,000 -290 Level Kansas City Center
Thu 04:13:16 PM 39.0283 -96.7897 42° Northeast 168 193 3,700 -689 Descending Kansas City Center
Thu 04:13:49 PM 39.0478 -96.7706 37° Northeast 148 170 3,300 -774 Descending Kansas City Center
Thu 04:14:18 PM 39.0600 -96.7558 43° Northeast 141 162 2,900 -787 Descending Kansas City Center
Thu 04:14:50 PM 39.0767 -96.7397 37° Northeast 130 150 2,500 -677 Descending Kansas City Center
Thu 04:15:20 PM 39.0900 -96.7217 46° Northeast 138 159 2,200 -700 Descending Kansas City Center
Thu 04:15:50 PM 39.1036 -96.7092 35° Northeast 131 151 1,800 -774 Descending Kansas City Center
Thu 04:16:22 PM 39.1203 -96.6914 40° Northeast 137 158 1,400 -447 Descending Kansas City Center
Thu 04:17:24 PM 39.1494 -96.6608 39° Northeast 134 154 1,100 -290 Descending Kansas City Center

Login

Don't have an account? Register now (free) for customized features, flight alerts, and more!